createdAt,value
2022-11-27T00:02:04.288Z,5.65
2022-11-27T00:04:48.237Z,5.70
2022-11-27T00:07:33.570Z,5.69
2022-11-27T00:10:17.874Z,5.59
2022-11-27T00:13:01.780Z,5.64
2022-11-27T00:15:46.032Z,5.57
2022-11-27T00:18:30.160Z,5.84
2022-11-27T00:21:16.364Z,5.78
2022-11-27T00:24:03.817Z,6.14
2022-11-27T00:26:49.866Z,6.08
2022-11-27T00:29:33.691Z,6.10
2022-11-27T00:32:17.504Z,6.02
2022-11-27T00:35:01.203Z,6.15
2022-11-27T00:37:44.940Z,6.49
2022-11-27T00:40:30.057Z,5.97
2022-11-27T00:43:13.838Z,5.71
2022-11-27T00:45:57.608Z,5.90
2022-11-27T00:48:41.410Z,5.69
2022-11-27T00:51:25.836Z,6.12
2022-11-27T00:54:09.862Z,6.09
2022-11-27T00:56:55.170Z,6.35
2022-11-27T00:59:39.169Z,6.13
2022-11-27T01:02:23.186Z,6.17
2022-11-27T01:05:08.006Z,6.36
2022-11-27T01:07:51.754Z,6.28
2022-11-27T01:10:35.573Z,6.08
2022-11-27T01:13:21.030Z,6.42
2022-11-27T01:16:07.406Z,6.47
2022-11-27T01:18:52.375Z,6.23
2022-11-27T01:21:36.667Z,5.79
2022-11-27T01:24:20.387Z,6.19
2022-11-27T01:27:04.277Z,6.64
2022-11-27T01:29:49.507Z,6.77
2022-11-27T01:32:33.417Z,6.32
2022-11-27T01:35:17.505Z,6.16
2022-11-27T01:38:01.530Z,6.20
2022-11-27T01:40:45.575Z,6.26
2022-11-27T01:43:42.085Z,6.42
2022-11-27T01:46:40.993Z,6.02
2022-11-27T01:49:30.953Z,6.62
2022-11-27T01:52:19.941Z,6.41
2022-11-27T01:55:09.056Z,6.08
2022-11-27T01:57:56.370Z,5.96
2022-11-27T02:00:40.797Z,6.40
2022-11-27T02:03:26.297Z,5.84
2022-11-27T02:06:13.345Z,6.11
2022-11-27T02:08:58.037Z,6.33
2022-11-27T02:11:50.571Z,6.48
2022-11-27T02:15:04.057Z,6.73
2022-11-27T02:17:53.417Z,6.81
2022-11-27T02:20:48.870Z,6.40
2022-11-27T02:24:23.200Z,6.67
2022-11-27T02:27:23.475Z,6.68
2022-11-27T02:30:09.765Z,6.86
2022-11-27T02:32:58.303Z,6.80
2022-11-27T02:35:49.382Z,6.64
2022-11-27T02:38:39.482Z,6.68
2022-11-27T02:41:29.526Z,6.68
2022-11-27T02:44:14.770Z,6.43
2022-11-27T02:47:00.749Z,5.96
2022-11-27T02:49:46.374Z,6.29
2022-11-27T02:52:32.529Z,6.31
2022-11-27T02:55:21.979Z,6.30
2022-11-27T02:58:10.534Z,6.20
2022-11-27T03:00:56.013Z,6.13
2022-11-27T03:03:45.826Z,6.06
2022-11-27T03:06:35.947Z,6.04
2022-11-27T03:09:25.629Z,5.97
2022-11-27T03:12:13.133Z,6.14
2022-11-27T03:14:57.189Z,6.16
2022-11-27T03:17:53.049Z,5.51
2022-11-27T03:20:42.271Z,5.64
2022-11-27T03:23:26.243Z,5.34
2022-11-27T03:26:10.293Z,5.15
2022-11-27T03:28:56.607Z,5.56
2022-11-27T03:31:41.310Z,5.45
2022-11-27T03:34:25.593Z,5.48
2022-11-27T03:37:11.408Z,5.17
2022-11-27T03:39:56.273Z,4.92
2022-11-27T03:42:52.965Z,5.03
2022-11-27T03:45:44.986Z,4.97
2022-11-27T03:48:36.715Z,5.35
2022-11-27T03:51:26.654Z,5.66
2022-11-27T03:54:22.238Z,5.33
2022-11-27T03:57:14.464Z,5.46
2022-11-27T04:00:03.818Z,5.15
2022-11-27T04:02:52.787Z,5.53
2022-11-27T04:05:36.859Z,5.21
2022-11-27T04:08:21.060Z,5.42
2022-11-27T04:11:06.608Z,5.48
2022-11-27T04:13:52.192Z,5.42
2022-11-27T04:16:36.037Z,5.22
2022-11-27T04:19:19.950Z,5.43
2022-11-27T04:22:03.726Z,5.53
2022-11-27T04:24:47.513Z,5.46
2022-11-27T04:27:32.665Z,5.53
2022-11-27T04:30:16.528Z,5.35
2022-11-27T04:33:00.226Z,5.37
2022-11-27T04:35:44.404Z,5.26
2022-11-27T04:38:28.227Z,5.32
2022-11-27T04:41:11.964Z,5.29
2022-11-27T04:43:57.070Z,5.36
2022-11-27T04:46:40.833Z,5.33
2022-11-27T04:49:24.718Z,5.30
2022-11-27T04:52:08.708Z,5.40
2022-11-27T04:54:58.352Z,5.29
2022-11-27T04:57:43.708Z,5.11
2022-11-27T05:00:28.984Z,5.22
2022-11-27T05:03:12.869Z,5.20
2022-11-27T05:05:57.607Z,5.31
2022-11-27T05:08:41.328Z,5.23
2022-11-27T05:11:25.033Z,5.01
2022-11-27T05:14:18.252Z,5.06
2022-11-27T05:17:03.811Z,4.90
2022-11-27T05:19:47.906Z,4.82
2022-11-27T05:22:32.282Z,4.95
2022-11-27T05:25:16.518Z,4.79
2022-11-27T05:28:00.547Z,4.77
2022-11-27T05:30:44.473Z,4.64
2022-11-27T05:33:29.849Z,4.67
2022-11-27T05:36:13.975Z,4.70
2022-11-27T05:38:57.947Z,4.94
2022-11-27T05:41:43.698Z,4.55
2022-11-27T05:44:28.380Z,4.95
2022-11-27T05:47:12.355Z,5.15
2022-11-27T05:49:57.741Z,5.01
2022-11-27T05:52:41.590Z,4.63
2022-11-27T05:55:25.657Z,4.44
2022-11-27T05:58:09.616Z,4.62
2022-11-27T06:00:54.021Z,4.57
2022-11-27T06:03:39.188Z,4.08
2022-11-27T06:06:24.680Z,4.20
2022-11-27T06:09:12.742Z,4.49
2022-11-27T06:11:57.426Z,4.18
2022-11-27T06:14:41.640Z,4.12
2022-11-27T06:17:26.196Z,4.82
2022-11-27T06:20:10.664Z,4.69
2022-11-27T06:22:57.478Z,4.54
2022-11-27T06:25:41.319Z,4.48
2022-11-27T06:28:25.086Z,4.33
2022-11-27T06:31:15.998Z,4.46
2022-11-27T06:34:02.061Z,4.45
2022-11-27T06:36:46.535Z,4.60
2022-11-27T06:39:31.766Z,4.52
2022-11-27T06:42:15.663Z,4.83
2022-11-27T06:44:59.529Z,5.03
2022-11-27T06:47:43.233Z,4.81
2022-11-27T06:50:27.214Z,5.00
2022-11-27T06:53:10.889Z,4.84
2022-11-27T06:55:55.958Z,4.90
2022-11-27T06:58:40.434Z,4.92
2022-11-27T07:01:25.925Z,4.95
2022-11-27T07:04:11.900Z,4.97
2022-11-27T07:06:56.042Z,4.97
2022-11-27T07:09:39.788Z,5.09
2022-11-27T07:12:24.872Z,5.42
2022-11-27T07:15:09.683Z,5.31
2022-11-27T07:17:53.605Z,5.56
2022-11-27T07:20:37.382Z,5.23
2022-11-27T07:23:21.235Z,5.15
2022-11-27T07:26:08.047Z,5.29
2022-11-27T07:28:53.453Z,5.67
2022-11-27T07:31:37.235Z,5.88
2022-11-27T07:34:21.881Z,5.67
2022-11-27T07:37:05.894Z,5.89
2022-11-27T07:40:04.733Z,6.13
2022-11-27T07:42:48.536Z,5.74
2022-11-27T07:45:35.753Z,5.98
2022-11-27T07:48:19.563Z,5.69
2022-11-27T07:51:03.526Z,5.99
2022-11-27T07:53:48.682Z,6.00
2022-11-27T07:56:32.647Z,5.65
2022-11-27T07:59:16.572Z,5.57
2022-11-27T08:02:01.864Z,6.14
2022-11-27T08:04:45.740Z,5.93
2022-11-27T08:07:30.404Z,6.31
2022-11-27T08:10:14.350Z,6.48
2022-11-27T08:12:58.765Z,6.57
2022-11-27T08:15:42.499Z,6.42
2022-11-27T08:18:27.774Z,6.68
2022-11-27T08:21:11.520Z,6.61
2022-11-27T08:23:55.397Z,6.64
2022-11-27T08:26:39.240Z,7.00
2022-11-27T08:29:23.331Z,6.62
2022-11-27T08:32:07.856Z,6.85
2022-11-27T08:34:53.377Z,6.94
2022-11-27T08:37:37.595Z,7.38
2022-11-27T08:40:21.485Z,7.02
2022-11-27T08:43:05.480Z,7.55
2022-11-27T08:45:49.703Z,8.06
2022-11-27T08:48:33.602Z,8.15
2022-11-27T08:51:19.154Z,8.50
2022-11-27T08:54:03.692Z,7.94
2022-11-27T08:56:47.645Z,7.36
2022-11-27T08:59:31.901Z,7.90
2022-11-27T09:02:15.944Z,8.54
2022-11-27T09:04:59.973Z,8.64
2022-11-27T09:07:45.483Z,8.19
2022-11-27T09:10:29.458Z,8.09
2022-11-27T09:13:13.513Z,8.44
2022-11-27T09:15:58.417Z,8.86
2022-11-27T09:18:44.725Z,8.88
2022-11-27T09:21:31.495Z,8.62
2022-11-27T09:24:16.626Z,8.49
2022-11-27T09:27:00.375Z,8.58
2022-11-27T09:29:44.080Z,8.24
2022-11-27T09:32:27.879Z,8.59
2022-11-27T09:35:11.784Z,9.19
2022-11-27T09:37:55.662Z,9.61
2022-11-27T09:40:45.204Z,8.89
2022-11-27T09:43:31.737Z,8.89
2022-11-27T09:46:25.968Z,9.22
2022-11-27T09:49:14.973Z,9.31
2022-11-27T09:52:03.561Z,9.31
2022-11-27T09:54:55.022Z,9.47
2022-11-27T09:57:44.014Z,9.01
2022-11-27T10:00:28.298Z,8.41
2022-11-27T10:03:15.773Z,9.10
2022-11-27T10:06:10.125Z,9.12
2022-11-27T10:09:07.502Z,9.00
2022-11-27T10:11:58.051Z,9.28
2022-11-27T10:14:56.120Z,9.13
2022-11-27T10:17:43.325Z,9.49
2022-11-27T10:20:33.304Z,9.55
2022-11-27T10:23:25.778Z,9.86
2022-11-27T10:26:17.054Z,9.09
2022-11-27T10:29:06.047Z,9.02
2022-11-27T10:31:57.403Z,9.19
2022-11-27T10:34:44.720Z,8.94
2022-11-27T10:37:31.917Z,8.92
2022-11-27T10:40:23.900Z,9.20
2022-11-27T10:43:13.766Z,9.11
2022-11-27T10:46:01.704Z,9.48
2022-11-27T10:48:46.895Z,9.84
2022-11-27T10:51:33.893Z,9.45
2022-11-27T10:54:25.019Z,9.49
2022-11-27T10:57:39.138Z,9.60
2022-11-27T11:00:25.180Z,9.31
2022-11-27T11:03:18.931Z,9.24
2022-11-27T11:06:23.209Z,9.71
2022-11-27T11:09:14.260Z,10.04
2022-11-27T11:12:08.772Z,10.46
2022-11-27T11:14:53.982Z,10.10
2022-11-27T11:17:38.523Z,10.43
2022-11-27T11:20:24.681Z,10.54
2022-11-27T11:23:22.241Z,9.96
2022-11-27T11:26:14.580Z,10.55
2022-11-27T11:29:00.625Z,10.14
2022-11-27T11:31:44.925Z,9.85
2022-11-27T11:34:30.671Z,9.90
2022-11-27T11:37:23.831Z,10.02
2022-11-27T11:40:24.830Z,10.51
2022-11-27T11:43:25.528Z,9.95
2022-11-27T11:46:19.118Z,9.71
2022-11-27T11:49:07.383Z,10.15
2022-11-27T11:52:24.639Z,10.13
2022-11-27T11:55:17.837Z,10.45
2022-11-27T11:58:34.917Z,10.24
2022-11-27T12:01:33.337Z,10.24
2022-11-27T12:04:43.029Z,9.86
2022-11-27T12:07:41.422Z,9.79
2022-11-27T12:10:32.558Z,9.93
2022-11-27T12:13:33.188Z,9.97
2022-11-27T12:16:24.497Z,9.93
2022-11-27T12:19:31.539Z,10.24
2022-11-27T12:22:28.501Z,9.83
2022-11-27T12:25:27.575Z,9.46
2022-11-27T12:28:30.206Z,9.73
2022-11-27T12:31:24.477Z,10.21
2022-11-27T12:34:18.846Z,10.70
2022-11-27T12:37:19.721Z,11.11
2022-11-27T12:40:27.495Z,10.98
2022-11-27T12:43:24.541Z,10.51
2022-11-27T12:46:15.041Z,10.40
2022-11-27T12:49:04.121Z,10.35
2022-11-27T12:51:52.257Z,10.18
2022-11-27T12:54:42.833Z,10.15
2022-11-27T12:57:35.265Z,9.59
2022-11-27T13:00:23.148Z,9.93
2022-11-27T13:03:14.141Z,9.84
2022-11-27T13:06:05.762Z,9.65
2022-11-27T13:08:58.443Z,10.07
2022-11-27T13:11:43.163Z,9.72
2022-11-27T13:14:29.535Z,9.87
2022-11-27T13:17:18.155Z,9.80
2022-11-27T13:20:04.253Z,9.77
2022-11-27T13:22:49.493Z,9.74
2022-11-27T13:25:37.565Z,9.68
2022-11-27T13:28:32.131Z,9.61
2022-11-27T13:31:23.279Z,9.44
2022-11-27T13:34:12.966Z,9.44
2022-11-27T13:37:00.094Z,9.85
2022-11-27T13:39:44.257Z,9.73
2022-11-27T13:42:28.807Z,9.92
2022-11-27T13:45:22.334Z,9.64
2022-11-27T13:48:22.980Z,9.72
2022-11-27T13:51:10.732Z,10.17
2022-11-27T13:53:54.793Z,10.12
2022-11-27T13:56:39.120Z,9.86
2022-11-27T13:59:24.878Z,9.85
2022-11-27T14:02:09.410Z,9.92
2022-11-27T14:04:56.606Z,10.00
2022-11-27T14:07:45.257Z,10.00
2022-11-27T14:10:31.253Z,9.69
2022-11-27T14:13:15.189Z,9.22
2022-11-27T14:16:02.183Z,9.37
2022-11-27T14:18:52.193Z,9.26
2022-11-27T14:21:42.868Z,9.14
2022-11-27T14:24:37.023Z,9.20
2022-11-27T14:27:23.039Z,9.30
2022-11-27T14:30:22.838Z,9.30
2022-11-27T14:33:17.205Z,9.67
2022-11-27T14:36:02.747Z,9.77
2022-11-27T14:38:48.957Z,9.84
2022-11-27T14:41:34.221Z,9.69
2022-11-27T14:44:19.265Z,9.77
2022-11-27T14:47:06.178Z,9.17
2022-11-27T14:49:56.183Z,9.51
2022-11-27T14:52:40.567Z,9.42
2022-11-27T14:55:27.880Z,9.39
2022-11-27T14:58:20.261Z,9.05
2022-11-27T15:01:06.917Z,9.06
2022-11-27T15:03:56.978Z,9.31
2022-11-27T15:06:43.095Z,9.42
2022-11-27T15:09:32.648Z,9.15
2022-11-27T15:12:19.976Z,8.49
2022-11-27T15:15:09.017Z,8.97
2022-11-27T15:17:55.624Z,9.15
2022-11-27T15:20:42.232Z,8.94
2022-11-27T15:23:29.127Z,9.06
2022-11-27T15:26:18.824Z,9.23
2022-11-27T15:29:06.449Z,8.99
2022-11-27T15:31:54.994Z,8.80
2022-11-27T15:34:40.889Z,8.71
2022-11-27T15:37:32.490Z,8.48
2022-11-27T15:40:29.250Z,8.21
2022-11-27T15:43:16.349Z,9.04
2022-11-27T15:46:03.025Z,8.90
2022-11-27T15:48:53.238Z,8.56
2022-11-27T15:51:38.822Z,8.63
2022-11-27T15:54:24.838Z,8.37
2022-11-27T15:57:10.490Z,8.82
2022-11-27T15:59:56.243Z,8.41
2022-11-27T16:02:41.419Z,8.69
2022-11-27T16:05:32.293Z,8.79
2022-11-27T16:08:18.449Z,7.42
2022-11-27T16:11:04.989Z,8.13
2022-11-27T16:13:50.602Z,8.28
2022-11-27T16:16:36.600Z,8.60
2022-11-27T16:19:22.614Z,8.53
2022-11-27T16:22:13.656Z,8.69
2022-11-27T16:25:01.825Z,8.66
2022-11-27T16:27:49.112Z,8.66
2022-11-27T16:30:34.983Z,8.04
2022-11-27T16:33:22.489Z,8.61
2022-11-27T16:36:09.281Z,8.39
2022-11-27T16:38:57.827Z,7.96
2022-11-27T16:41:46.068Z,8.14
2022-11-27T16:44:32.817Z,8.12
2022-11-27T16:47:21.799Z,8.38
2022-11-27T16:50:09.048Z,8.52
2022-11-27T16:52:56.871Z,8.19
2022-11-27T16:55:51.631Z,7.90
2022-11-27T16:58:42.971Z,8.43
2022-11-27T17:01:32.988Z,8.08
2022-11-27T17:04:20.747Z,8.08
2022-11-27T17:07:09.683Z,8.00
2022-11-27T17:09:56.047Z,7.77
2022-11-27T17:12:44.464Z,7.88
2022-11-27T17:15:32.340Z,8.01
2022-11-27T17:18:19.697Z,8.05
2022-11-27T17:21:10.912Z,7.63
2022-11-27T17:23:59.632Z,7.95
2022-11-27T17:26:46.510Z,8.02
2022-11-27T17:29:36.453Z,8.11
2022-11-27T17:32:25.733Z,7.87
2022-11-27T17:35:12.353Z,8.13
2022-11-27T17:37:58.218Z,8.20
2022-11-27T17:40:46.761Z,8.03
2022-11-27T17:43:35.561Z,7.59
2022-11-27T17:46:24.602Z,7.84
2022-11-27T17:49:12.612Z,7.71
2022-11-27T17:52:04.869Z,7.64
2022-11-27T17:54:58.680Z,7.18
2022-11-27T17:57:44.741Z,7.05
2022-11-27T18:00:33.882Z,6.93
2022-11-27T18:03:21.026Z,6.83
2022-11-27T18:06:07.968Z,6.58
2022-11-27T18:08:56.891Z,6.95
2022-11-27T18:11:42.933Z,6.99
2022-11-27T18:14:29.869Z,7.29
2022-11-27T18:17:18.442Z,7.13
2022-11-27T18:20:06.081Z,7.10
2022-11-27T18:22:52.599Z,6.79
2022-11-27T18:25:47.587Z,7.34
2022-11-27T18:28:34.543Z,7.36
2022-11-27T18:31:21.896Z,7.05
2022-11-27T18:34:07.545Z,7.47
2022-11-27T18:36:58.333Z,7.38
2022-11-27T18:39:46.489Z,7.10
2022-11-27T18:42:35.129Z,7.35
2022-11-27T18:45:33.412Z,7.57
2022-11-27T18:48:21.398Z,7.44
2022-11-27T18:51:11.370Z,7.48
2022-11-27T18:54:10.698Z,7.52
2022-11-27T18:57:00.852Z,7.25
2022-11-27T18:59:49.305Z,7.39
2022-11-27T19:02:36.335Z,7.45
2022-11-27T19:05:22.183Z,7.42
2022-11-27T19:08:11.241Z,7.59
2022-11-27T19:11:02.826Z,7.69
2022-11-27T19:13:49.524Z,7.69
2022-11-27T19:16:40.373Z,7.25
2022-11-27T19:19:53.893Z,7.26
2022-11-27T19:22:33.312Z,7.25
2022-11-27T19:25:18.984Z,7.39
2022-11-27T19:28:06.266Z,7.75
2022-11-27T19:30:53.913Z,7.61
2022-11-27T19:33:41.005Z,6.85
2022-11-27T19:36:27.370Z,7.31
2022-11-27T19:39:19.307Z,7.09
2022-11-27T19:42:08.919Z,6.79
2022-11-27T19:44:57.194Z,7.03
2022-11-27T19:47:45.874Z,7.09
2022-11-27T19:50:30.385Z,7.03
2022-11-27T19:53:16.832Z,6.73
2022-11-27T19:56:02.607Z,6.53
2022-11-27T19:58:48.225Z,6.52
2022-11-27T20:01:35.478Z,6.74
2022-11-27T20:04:24.518Z,6.54
2022-11-27T20:07:11.465Z,6.17
2022-11-27T20:09:58.510Z,6.16
2022-11-27T20:12:44.503Z,6.17
2022-11-27T20:15:32.150Z,5.95
2022-11-27T20:18:19.441Z,6.60
2022-11-27T20:21:10.986Z,6.24
2022-11-27T20:23:58.160Z,6.14
2022-11-27T20:26:45.528Z,5.80
2022-11-27T20:29:35.849Z,5.75
2022-11-27T20:32:22.042Z,5.87
2022-11-27T20:35:09.904Z,6.06
2022-11-27T20:37:58.624Z,5.95
2022-11-27T20:40:44.448Z,5.69
2022-11-27T20:43:31.599Z,5.95
2022-11-27T20:46:21.246Z,5.85
2022-11-27T20:49:07.704Z,5.73
2022-11-27T20:51:57.769Z,5.96
2022-11-27T20:54:44.694Z,5.85
2022-11-27T20:57:31.162Z,5.70
2022-11-27T21:00:17.614Z,5.59
2022-11-27T21:03:02.625Z,5.52
2022-11-27T21:05:49.342Z,5.47
2022-11-27T21:08:36.578Z,5.62
2022-11-27T21:11:26.235Z,5.74
2022-11-27T21:14:13.672Z,5.78
2022-11-27T21:17:04.525Z,5.91
2022-11-27T21:19:52.530Z,5.50
2022-11-27T21:22:38.516Z,5.87
2022-11-27T21:25:27.546Z,5.66
2022-11-27T21:28:13.299Z,5.46
2022-11-27T21:31:06.815Z,5.84
2022-11-27T21:33:53.807Z,5.71
2022-11-27T21:36:40.466Z,5.65
2022-11-27T21:39:26.824Z,5.46
2022-11-27T21:42:13.522Z,5.50
2022-11-27T21:44:58.773Z,5.61
2022-11-27T21:47:43.935Z,5.69
2022-11-27T21:50:28.510Z,5.11
2022-11-27T21:53:13.676Z,5.48
2022-11-27T21:55:59.141Z,4.60
2022-11-27T21:58:45.966Z,4.79
2022-11-27T22:01:31.039Z,4.85
2022-11-27T22:04:16.055Z,5.63
2022-11-27T22:07:01.109Z,5.22
2022-11-27T22:09:45.574Z,5.50
2022-11-27T22:12:30.274Z,5.87
2022-11-27T22:15:16.509Z,5.94
2022-11-27T22:18:01.538Z,6.19
2022-11-27T22:20:46.685Z,6.24
2022-11-27T22:23:31.091Z,6.16
2022-11-27T22:26:17.320Z,6.25
2022-11-27T22:29:01.293Z,5.26
2022-11-27T22:31:46.951Z,5.57
2022-11-27T22:34:31.954Z,5.90
2022-11-27T22:37:16.435Z,5.16
2022-11-27T22:40:00.450Z,4.94
2022-11-27T22:42:44.414Z,4.92
2022-11-27T22:45:28.548Z,5.01
2022-11-27T22:48:14.172Z,5.69
2022-11-27T22:50:58.235Z,5.80
2022-11-27T22:53:42.311Z,5.96
2022-11-27T22:56:26.799Z,5.52
2022-11-27T22:59:31.709Z,5.86
2022-11-27T23:02:16.191Z,5.79
2022-11-27T23:05:01.961Z,5.72
2022-11-27T23:07:47.000Z,5.92
2022-11-27T23:10:30.979Z,5.63
2022-11-27T23:13:15.072Z,6.40
2022-11-27T23:15:59.087Z,6.41
2022-11-27T23:18:42.989Z,6.00
2022-11-27T23:21:28.214Z,6.27
2022-11-27T23:24:15.366Z,5.80
2022-11-27T23:26:59.327Z,5.96
2022-11-27T23:29:43.077Z,5.53
2022-11-27T23:32:26.927Z,5.56
2022-11-27T23:35:11.501Z,5.56
2022-11-27T23:37:56.802Z,5.53
2022-11-27T23:40:40.618Z,6.17
2022-11-27T23:43:24.469Z,6.43
2022-11-27T23:46:09.956Z,6.16
2022-11-27T23:48:55.691Z,5.81
2022-11-27T23:51:39.618Z,5.90
2022-11-27T23:54:24.852Z,5.43
2022-11-27T23:57:08.592Z,5.74
2022-11-27T23:59:52.515Z,6.13
